sensor_id;sensor_type;location;lat;lon;timestamp;temperature;humidity
3550;DHT22;45572;48.804;8.330;2022-11-20T00:02:05;8.60;91.40
3550;DHT22;45572;48.804;8.330;2022-11-20T00:04:33;8.60;91.30
3550;DHT22;45572;48.804;8.330;2022-11-20T00:07:00;8.60;90.60
3550;DHT22;45572;48.804;8.330;2022-11-20T00:09:28;8.70;90.60
3550;DHT22;45572;48.804;8.330;2022-11-20T00:11:57;8.70;90.80
3550;DHT22;45572;48.804;8.330;2022-11-20T00:14:25;8.70;90.30
3550;DHT22;45572;48.804;8.330;2022-11-20T00:16:52;8.70;90.40
3550;DHT22;45572;48.804;8.330;2022-11-20T00:19:20;8.70;90.80
3550;DHT22;45572;48.804;8.330;2022-11-20T00:21:48;8.70;90.50
3550;DHT22;45572;48.804;8.330;2022-11-20T00:24:17;8.70;90.40
3550;DHT22;45572;48.804;8.330;2022-11-20T00:26:45;8.70;90.40
3550;DHT22;45572;48.804;8.330;2022-11-20T00:29:14;8.70;90.50
3550;DHT22;45572;48.804;8.330;2022-11-20T00:31:42;8.70;90.60
3550;DHT22;45572;48.804;8.330;2022-11-20T00:34:10;8.80;91.00
3550;DHT22;45572;48.804;8.330;2022-11-20T00:36:38;8.80;90.70
3550;DHT22;45572;48.804;8.330;2022-11-20T00:39:05;8.80;90.50
3550;DHT22;45572;48.804;8.330;2022-11-20T00:41:33;8.80;90.30
3550;DHT22;45572;48.804;8.330;2022-11-20T00:44:01;8.70;90.70
3550;DHT22;45572;48.804;8.330;2022-11-20T00:46:30;8.70;90.70
3550;DHT22;45572;48.804;8.330;2022-11-20T00:48:58;8.70;90.90
3550;DHT22;45572;48.804;8.330;2022-11-20T00:51:27;8.60;90.90
3550;DHT22;45572;48.804;8.330;2022-11-20T00:53:56;8.60;91.00
3550;DHT22;45572;48.804;8.330;2022-11-20T00:56:24;8.70;91.20
3550;DHT22;45572;48.804;8.330;2022-11-20T00:58:52;8.60;91.00
3550;DHT22;45572;48.804;8.330;2022-11-20T01:01:22;8.60;91.00
3550;DHT22;45572;48.804;8.330;2022-11-20T01:03:54;8.60;91.20
3550;DHT22;45572;48.804;8.330;2022-11-20T01:06:23;8.60;91.30
3550;DHT22;45572;48.804;8.330;2022-11-20T01:08:53;8.60;91.10
3550;DHT22;45572;48.804;8.330;2022-11-20T01:11:23;8.60;90.90
3550;DHT22;45572;48.804;8.330;2022-11-20T01:13:52;8.50;90.70
3550;DHT22;45572;48.804;8.330;2022-11-20T01:16:22;8.60;91.00
3550;DHT22;45572;48.804;8.330;2022-11-20T01:18:53;8.60;90.80
3550;DHT22;45572;48.804;8.330;2022-11-20T01:21:23;8.60;90.80
3550;DHT22;45572;48.804;8.330;2022-11-20T01:23:52;8.60;91.00
3550;DHT22;45572;48.804;8.330;2022-11-20T01:26:21;8.70;91.40
3550;DHT22;45572;48.804;8.330;2022-11-20T01:28:50;8.70;91.40
3550;DHT22;45572;48.804;8.330;2022-11-20T01:31:19;8.80;90.70
3550;DHT22;45572;48.804;8.330;2022-11-20T01:33:49;8.90;90.90
3550;DHT22;45572;48.804;8.330;2022-11-20T01:36:20;8.80;89.90
3550;DHT22;45572;48.804;8.330;2022-11-20T01:38:51;8.80;90.00
3550;DHT22;45572;48.804;8.330;2022-11-20T01:41:19;8.80;89.30
3550;DHT22;45572;48.804;8.330;2022-11-20T01:44:03;8.80;89.00
3550;DHT22;45572;48.804;8.330;2022-11-20T01:46:31;8.80;88.90
3550;DHT22;45572;48.804;8.330;2022-11-20T01:49:02;8.90;89.60
3550;DHT22;45572;48.804;8.330;2022-11-20T01:51:38;9.00;89.20
3550;DHT22;45572;48.804;8.330;2022-11-20T01:54:11;8.90;88.60
3550;DHT22;45572;48.804;8.330;2022-11-20T01:56:42;8.90;88.40
3550;DHT22;45572;48.804;8.330;2022-11-20T01:59:13;8.80;88.70
3550;DHT22;45572;48.804;8.330;2022-11-20T02:01:42;8.80;88.50
3550;DHT22;45572;48.804;8.330;2022-11-20T02:04:10;8.80;88.70
3550;DHT22;45572;48.804;8.330;2022-11-20T02:06:43;8.80;88.90
3550;DHT22;45572;48.804;8.330;2022-11-20T02:09:14;8.80;88.70
3550;DHT22;45572;48.804;8.330;2022-11-20T02:11:41;8.80;88.60
3550;DHT22;45572;48.804;8.330;2022-11-20T02:14:10;8.80;88.60
3550;DHT22;45572;48.804;8.330;2022-11-20T02:16:40;8.80;88.30
3550;DHT22;45572;48.804;8.330;2022-11-20T02:19:19;8.70;88.70
3550;DHT22;45572;48.804;8.330;2022-11-20T02:21:57;8.80;88.40
3550;DHT22;45572;48.804;8.330;2022-11-20T02:24:29;8.80;88.20
3550;DHT22;45572;48.804;8.330;2022-11-20T02:26:59;8.80;88.30
3550;DHT22;45572;48.804;8.330;2022-11-20T02:29:33;8.80;88.60
3550;DHT22;45572;48.804;8.330;2022-11-20T02:32:04;8.60;88.30
3550;DHT22;45572;48.804;8.330;2022-11-20T02:34:31;8.60;88.80
3550;DHT22;45572;48.804;8.330;2022-11-20T02:36:59;8.70;89.50
3550;DHT22;45572;48.804;8.330;2022-11-20T02:39:28;8.70;89.50
3550;DHT22;45572;48.804;8.330;2022-11-20T02:41:56;8.70;89.40
3550;DHT22;45572;48.804;8.330;2022-11-20T02:44:24;8.70;89.10
3550;DHT22;45572;48.804;8.330;2022-11-20T02:46:52;8.60;88.60
3550;DHT22;45572;48.804;8.330;2022-11-20T02:49:19;8.60;89.20
3550;DHT22;45572;48.804;8.330;2022-11-20T02:51:47;8.70;89.20
3550;DHT22;45572;48.804;8.330;2022-11-20T02:54:15;8.80;89.70
3550;DHT22;45572;48.804;8.330;2022-11-20T02:56:44;8.70;88.70
3550;DHT22;45572;48.804;8.330;2022-11-20T02:59:12;8.80;88.50
3550;DHT22;45572;48.804;8.330;2022-11-20T03:01:40;8.80;89.00
3550;DHT22;45572;48.804;8.330;2022-11-20T03:04:08;8.90;88.50
3550;DHT22;45572;48.804;8.330;2022-11-20T03:06:35;8.90;88.70
3550;DHT22;45572;48.804;8.330;2022-11-20T03:09:03;8.90;88.00
3550;DHT22;45572;48.804;8.330;2022-11-20T03:11:31;8.80;88.00
3550;DHT22;45572;48.804;8.330;2022-11-20T03:14:03;8.80;87.90
3550;DHT22;45572;48.804;8.330;2022-11-20T03:16:32;8.90;88.40
3550;DHT22;45572;48.804;8.330;2022-11-20T03:19:00;8.80;88.10
3550;DHT22;45572;48.804;8.330;2022-11-20T03:21:28;8.90;88.00
3550;DHT22;45572;48.804;8.330;2022-11-20T03:23:55;8.90;88.40
3550;DHT22;45572;48.804;8.330;2022-11-20T03:26:25;8.80;88.10
3550;DHT22;45572;48.804;8.330;2022-11-20T03:28:54;8.80;88.10
3550;DHT22;45572;48.804;8.330;2022-11-20T03:31:25;8.80;88.40
3550;DHT22;45572;48.804;8.330;2022-11-20T03:33:53;8.70;88.40
3550;DHT22;45572;48.804;8.330;2022-11-20T03:36:21;8.80;88.90
3550;DHT22;45572;48.804;8.330;2022-11-20T03:38:49;8.80;88.90
3550;DHT22;45572;48.804;8.330;2022-11-20T03:41:18;8.80;88.40
3550;DHT22;45572;48.804;8.330;2022-11-20T03:43:48;8.80;88.80
3550;DHT22;45572;48.804;8.330;2022-11-20T03:46:16;8.90;88.90
3550;DHT22;45572;48.804;8.330;2022-11-20T03:48:45;8.90;87.90
3550;DHT22;45572;48.804;8.330;2022-11-20T03:51:19;8.90;88.30
3550;DHT22;45572;48.804;8.330;2022-11-20T03:53:48;9.00;88.00
3550;DHT22;45572;48.804;8.330;2022-11-20T03:56:18;8.90;88.10
3550;DHT22;45572;48.804;8.330;2022-11-20T03:58:46;9.00;88.30
3550;DHT22;45572;48.804;8.330;2022-11-20T04:01:15;9.00;88.20
3550;DHT22;45572;48.804;8.330;2022-11-20T04:03:46;9.00;87.60
3550;DHT22;45572;48.804;8.330;2022-11-20T04:06:15;9.00;87.90
3550;DHT22;45572;48.804;8.330;2022-11-20T04:08:44;9.00;88.20
3550;DHT22;45572;48.804;8.330;2022-11-20T04:11:20;8.90;87.90
3550;DHT22;45572;48.804;8.330;2022-11-20T04:13:49;8.80;88.10
3550;DHT22;45572;48.804;8.330;2022-11-20T04:16:17;8.80;88.10
3550;DHT22;45572;48.804;8.330;2022-11-20T04:18:46;8.80;88.40
3550;DHT22;45572;48.804;8.330;2022-11-20T04:21:14;8.80;88.80
3550;DHT22;45572;48.804;8.330;2022-11-20T04:23:42;8.70;88.50
3550;DHT22;45572;48.804;8.330;2022-11-20T04:26:11;8.60;88.60
3550;DHT22;45572;48.804;8.330;2022-11-20T04:28:39;8.60;88.80
3550;DHT22;45572;48.804;8.330;2022-11-20T04:31:11;8.50;88.90
3550;DHT22;45572;48.804;8.330;2022-11-20T04:33:40;8.60;89.10
3550;DHT22;45572;48.804;8.330;2022-11-20T04:36:12;8.70;89.50
3550;DHT22;45572;48.804;8.330;2022-11-20T04:38:40;8.70;89.60
3550;DHT22;45572;48.804;8.330;2022-11-20T04:41:11;8.70;89.70
3550;DHT22;45572;48.804;8.330;2022-11-20T04:43:41;8.70;89.90
3550;DHT22;45572;48.804;8.330;2022-11-20T04:46:08;8.70;90.30
3550;DHT22;45572;48.804;8.330;2022-11-20T04:48:36;8.60;90.50
3550;DHT22;45572;48.804;8.330;2022-11-20T04:51:04;8.60;90.60
3550;DHT22;45572;48.804;8.330;2022-11-20T04:53:34;8.50;90.70
3550;DHT22;45572;48.804;8.330;2022-11-20T04:56:03;8.50;91.00
3550;DHT22;45572;48.804;8.330;2022-11-20T04:58:31;8.40;91.30
3550;DHT22;45572;48.804;8.330;2022-11-20T05:01:02;8.40;92.20
3550;DHT22;45572;48.804;8.330;2022-11-20T05:03:30;8.20;92.50
3550;DHT22;45572;48.804;8.330;2022-11-20T05:06:00;8.10;93.00
3550;DHT22;45572;48.804;8.330;2022-11-20T05:08:28;8.10;92.90
3550;DHT22;45572;48.804;8.330;2022-11-20T05:11:01;8.00;93.00
3550;DHT22;45572;48.804;8.330;2022-11-20T05:13:29;8.10;92.90
3550;DHT22;45572;48.804;8.330;2022-11-20T05:16:02;8.10;93.30
3550;DHT22;45572;48.804;8.330;2022-11-20T05:18:30;8.10;93.40
3550;DHT22;45572;48.804;8.330;2022-11-20T05:20:58;8.00;93.00
3550;DHT22;45572;48.804;8.330;2022-11-20T05:23:26;8.00;92.90
3550;DHT22;45572;48.804;8.330;2022-11-20T05:25:56;8.00;93.00
3550;DHT22;45572;48.804;8.330;2022-11-20T05:28:28;8.00;93.30
3550;DHT22;45572;48.804;8.330;2022-11-20T05:31:03;8.00;92.60
3550;DHT22;45572;48.804;8.330;2022-11-20T05:33:31;8.10;92.90
3550;DHT22;45572;48.804;8.330;2022-11-20T05:35:59;8.10;92.60
3550;DHT22;45572;48.804;8.330;2022-11-20T05:38:26;8.10;92.60
3550;DHT22;45572;48.804;8.330;2022-11-20T05:40:54;8.20;92.70
3550;DHT22;45572;48.804;8.330;2022-11-20T05:43:22;8.20;92.00
3550;DHT22;45572;48.804;8.330;2022-11-20T05:45:54;8.20;91.90
3550;DHT22;45572;48.804;8.330;2022-11-20T05:48:22;8.30;91.90
3550;DHT22;45572;48.804;8.330;2022-11-20T05:50:50;8.30;91.90
3550;DHT22;45572;48.804;8.330;2022-11-20T05:53:17;8.30;91.10
3550;DHT22;45572;48.804;8.330;2022-11-20T05:55:55;8.40;91.10
3550;DHT22;45572;48.804;8.330;2022-11-20T05:58:23;8.40;90.50
3550;DHT22;45572;48.804;8.330;2022-11-20T06:00:50;8.30;90.60
3550;DHT22;45572;48.804;8.330;2022-11-20T06:03:20;8.30;90.50
3550;DHT22;45572;48.804;8.330;2022-11-20T06:05:47;8.30;90.10
3550;DHT22;45572;48.804;8.330;2022-11-20T06:08:16;8.30;89.70
3550;DHT22;45572;48.804;8.330;2022-11-20T06:10:44;8.30;90.10
3550;DHT22;45572;48.804;8.330;2022-11-20T06:13:12;8.30;89.50
3550;DHT22;45572;48.804;8.330;2022-11-20T06:15:40;8.20;89.60
3550;DHT22;45572;48.804;8.330;2022-11-20T06:18:08;8.30;89.50
3550;DHT22;45572;48.804;8.330;2022-11-20T06:20:37;8.30;89.70
3550;DHT22;45572;48.804;8.330;2022-11-20T06:23:07;8.30;89.90
3550;DHT22;45572;48.804;8.330;2022-11-20T06:25:37;8.30;89.50
3550;DHT22;45572;48.804;8.330;2022-11-20T06:28:05;8.30;89.50
3550;DHT22;45572;48.804;8.330;2022-11-20T06:30:33;8.40;89.30
3550;DHT22;45572;48.804;8.330;2022-11-20T06:33:00;8.40;90.10
3550;DHT22;45572;48.804;8.330;2022-11-20T06:35:28;8.40;90.60
3550;DHT22;45572;48.804;8.330;2022-11-20T06:37:57;8.40;91.40
3550;DHT22;45572;48.804;8.330;2022-11-20T06:40:25;8.40;92.00
3550;DHT22;45572;48.804;8.330;2022-11-20T06:42:53;8.30;92.20
3550;DHT22;45572;48.804;8.330;2022-11-20T06:45:22;8.30;93.20
3550;DHT22;45572;48.804;8.330;2022-11-20T06:47:49;8.20;93.30
3550;DHT22;45572;48.804;8.330;2022-11-20T06:50:17;8.10;93.90
3550;DHT22;45572;48.804;8.330;2022-11-20T06:52:45;8.10;94.10
3550;DHT22;45572;48.804;8.330;2022-11-20T06:55:14;7.90;94.20
3550;DHT22;45572;48.804;8.330;2022-11-20T06:57:42;7.90;95.20
3550;DHT22;45572;48.804;8.330;2022-11-20T07:00:11;7.80;95.50
3550;DHT22;45572;48.804;8.330;2022-11-20T07:02:39;7.80;95.50
3550;DHT22;45572;48.804;8.330;2022-11-20T07:05:07;7.70;95.50
3550;DHT22;45572;48.804;8.330;2022-11-20T07:07:34;7.70;96.10
3550;DHT22;45572;48.804;8.330;2022-11-20T07:10:02;7.60;96.40
3550;DHT22;45572;48.804;8.330;2022-11-20T07:12:32;7.60;96.30
3550;DHT22;45572;48.804;8.330;2022-11-20T07:15:00;7.60;96.60
3550;DHT22;45572;48.804;8.330;2022-11-20T07:17:27;7.50;96.50
3550;DHT22;45572;48.804;8.330;2022-11-20T07:19:55;7.60;96.70
3550;DHT22;45572;48.804;8.330;2022-11-20T07:22:23;7.60;96.40
3550;DHT22;45572;48.804;8.330;2022-11-20T07:24:51;7.60;95.70
3550;DHT22;45572;48.804;8.330;2022-11-20T07:27:18;7.50;95.40
3550;DHT22;45572;48.804;8.330;2022-11-20T07:29:48;7.50;96.00
3550;DHT22;45572;48.804;8.330;2022-11-20T07:32:15;7.50;95.80
3550;DHT22;45572;48.804;8.330;2022-11-20T07:34:43;7.60;95.90
3550;DHT22;45572;48.804;8.330;2022-11-20T07:37:11;7.60;96.00
3550;DHT22;45572;48.804;8.330;2022-11-20T07:39:39;7.60;96.10
3550;DHT22;45572;48.804;8.330;2022-11-20T07:42:07;7.70;96.30
3550;DHT22;45572;48.804;8.330;2022-11-20T07:44:36;7.70;95.60
3550;DHT22;45572;48.804;8.330;2022-11-20T07:47:05;7.80;95.90
3550;DHT22;45572;48.804;8.330;2022-11-20T07:49:33;7.80;95.20
3550;DHT22;45572;48.804;8.330;2022-11-20T07:52:01;7.80;95.00
3550;DHT22;45572;48.804;8.330;2022-11-20T07:54:31;7.80;95.10
3550;DHT22;45572;48.804;8.330;2022-11-20T07:56:58;7.80;95.20
3550;DHT22;45572;48.804;8.330;2022-11-20T07:59:26;7.90;95.10
3550;DHT22;45572;48.804;8.330;2022-11-20T08:01:54;7.80;95.30
3550;DHT22;45572;48.804;8.330;2022-11-20T08:04:24;7.70;95.90
3550;DHT22;45572;48.804;8.330;2022-11-20T08:06:52;7.70;96.10
3550;DHT22;45572;48.804;8.330;2022-11-20T08:09:19;7.80;96.60
3550;DHT22;45572;48.804;8.330;2022-11-20T08:11:48;7.80;96.70
3550;DHT22;45572;48.804;8.330;2022-11-20T08:14:29;7.80;96.10
3550;DHT22;45572;48.804;8.330;2022-11-20T08:16:57;7.70;96.50
3550;DHT22;45572;48.804;8.330;2022-11-20T08:19:27;7.70;96.60
3550;DHT22;45572;48.804;8.330;2022-11-20T08:21:55;7.70;96.50
3550;DHT22;45572;48.804;8.330;2022-11-20T08:24:22;7.70;96.80
3550;DHT22;45572;48.804;8.330;2022-11-20T08:26:51;7.70;96.80
3550;DHT22;45572;48.804;8.330;2022-11-20T08:29:19;7.70;96.80
3550;DHT22;45572;48.804;8.330;2022-11-20T08:31:47;7.70;96.80
3550;DHT22;45572;48.804;8.330;2022-11-20T08:34:14;7.80;96.80
3550;DHT22;45572;48.804;8.330;2022-11-20T08:36:46;7.80;96.80
3550;DHT22;45572;48.804;8.330;2022-11-20T08:39:14;7.80;96.80
3550;DHT22;45572;48.804;8.330;2022-11-20T08:41:42;7.80;96.60
3550;DHT22;45572;48.804;8.330;2022-11-20T08:44:09;7.80;96.60
3550;DHT22;45572;48.804;8.330;2022-11-20T08:46:39;7.90;96.50
3550;DHT22;45572;48.804;8.330;2022-11-20T08:49:09;7.90;96.30
3550;DHT22;45572;48.804;8.330;2022-11-20T08:51:38;7.90;96.30
3550;DHT22;45572;48.804;8.330;2022-11-20T08:54:08;7.90;96.20
3550;DHT22;45572;48.804;8.330;2022-11-20T08:56:36;8.00;96.30
3550;DHT22;45572;48.804;8.330;2022-11-20T08:59:03;8.00;96.20
3550;DHT22;45572;48.804;8.330;2022-11-20T09:01:51;8.10;96.30
3550;DHT22;45572;48.804;8.330;2022-11-20T09:04:19;8.10;96.10
3550;DHT22;45572;48.804;8.330;2022-11-20T09:06:47;8.20;95.80
3550;DHT22;45572;48.804;8.330;2022-11-20T09:09:18;8.30;95.70
3550;DHT22;45572;48.804;8.330;2022-11-20T09:11:47;8.30;95.10
3550;DHT22;45572;48.804;8.330;2022-11-20T09:14:16;8.30;95.70
3550;DHT22;45572;48.804;8.330;2022-11-20T09:16:44;8.20;95.80
3550;DHT22;45572;48.804;8.330;2022-11-20T09:19:12;8.30;95.70
3550;DHT22;45572;48.804;8.330;2022-11-20T09:22:00;8.30;95.80
3550;DHT22;45572;48.804;8.330;2022-11-20T09:24:29;8.30;95.70
3550;DHT22;45572;48.804;8.330;2022-11-20T09:26:57;8.20;96.10
3550;DHT22;45572;48.804;8.330;2022-11-20T09:29:25;8.20;95.70
3550;DHT22;45572;48.804;8.330;2022-11-20T09:31:54;8.20;96.30
3550;DHT22;45572;48.804;8.330;2022-11-20T09:34:22;8.20;96.60
3550;DHT22;45572;48.804;8.330;2022-11-20T09:36:49;8.10;96.20
3550;DHT22;45572;48.804;8.330;2022-11-20T09:39:17;8.10;96.60
3550;DHT22;45572;48.804;8.330;2022-11-20T09:42:02;8.10;96.80
3550;DHT22;45572;48.804;8.330;2022-11-20T09:44:47;8.20;96.80
3550;DHT22;45572;48.804;8.330;2022-11-20T09:47:27;8.20;96.60
3550;DHT22;45572;48.804;8.330;2022-11-20T09:50:06;8.20;96.70
3550;DHT22;45572;48.804;8.330;2022-11-20T09:52:46;8.20;96.80
3550;DHT22;45572;48.804;8.330;2022-11-20T09:55:17;8.20;96.20
3550;DHT22;45572;48.804;8.330;2022-11-20T09:57:50;8.20;95.80
3550;DHT22;45572;48.804;8.330;2022-11-20T10:00:19;8.30;96.20
3550;DHT22;45572;48.804;8.330;2022-11-20T10:02:52;8.20;96.10
3550;DHT22;45572;48.804;8.330;2022-11-20T10:05:27;8.20;95.80
3550;DHT22;45572;48.804;8.330;2022-11-20T10:08:06;8.30;95.60
3550;DHT22;45572;48.804;8.330;2022-11-20T10:10:42;8.40;95.90
3550;DHT22;45572;48.804;8.330;2022-11-20T10:13:33;8.50;95.20
3550;DHT22;45572;48.804;8.330;2022-11-20T10:16:15;8.80;95.20
3550;DHT22;45572;48.804;8.330;2022-11-20T10:18:56;9.10;94.60
3550;DHT22;45572;48.804;8.330;2022-11-20T10:21:37;9.20;94.10
3550;DHT22;45572;48.804;8.330;2022-11-20T10:24:24;9.30;92.70
3550;DHT22;45572;48.804;8.330;2022-11-20T10:27:06;9.20;92.90
3550;DHT22;45572;48.804;8.330;2022-11-20T10:29:43;9.20;92.50
3550;DHT22;45572;48.804;8.330;2022-11-20T10:32:18;9.30;93.10
3550;DHT22;45572;48.804;8.330;2022-11-20T10:34:50;9.50;93.30
3550;DHT22;45572;48.804;8.330;2022-11-20T10:37:22;9.50;91.80
3550;DHT22;45572;48.804;8.330;2022-11-20T10:40:11;9.60;91.80
3550;DHT22;45572;48.804;8.330;2022-11-20T10:42:46;9.60;91.10
3550;DHT22;45572;48.804;8.330;2022-11-20T10:45:36;9.70;90.70
3550;DHT22;45572;48.804;8.330;2022-11-20T10:48:20;9.80;90.80
3550;DHT22;45572;48.804;8.330;2022-11-20T10:50:57;9.90;90.60
3550;DHT22;45572;48.804;8.330;2022-11-20T10:53:45;10.00;90.20
3550;DHT22;45572;48.804;8.330;2022-11-20T10:56:20;10.10;90.00
3550;DHT22;45572;48.804;8.330;2022-11-20T10:58:58;10.10;89.40
3550;DHT22;45572;48.804;8.330;2022-11-20T11:01:29;10.30;89.40
3550;DHT22;45572;48.804;8.330;2022-11-20T11:03:58;10.30;88.70
3550;DHT22;45572;48.804;8.330;2022-11-20T11:06:32;10.20;88.60
3550;DHT22;45572;48.804;8.330;2022-11-20T11:09:06;10.30;89.40
3550;DHT22;45572;48.804;8.330;2022-11-20T11:11:38;10.20;88.30
3550;DHT22;45572;48.804;8.330;2022-11-20T11:14:06;10.10;88.60
3550;DHT22;45572;48.804;8.330;2022-11-20T11:16:49;10.10;89.00
3550;DHT22;45572;48.804;8.330;2022-11-20T11:19:17;10.10;88.40
3550;DHT22;45572;48.804;8.330;2022-11-20T11:21:47;10.20;88.30
3550;DHT22;45572;48.804;8.330;2022-11-20T11:24:22;10.10;87.50
3550;DHT22;45572;48.804;8.330;2022-11-20T11:27:12;10.10;88.20
3550;DHT22;45572;48.804;8.330;2022-11-20T11:29:44;9.80;88.30
3550;DHT22;45572;48.804;8.330;2022-11-20T11:32:14;9.80;89.10
3550;DHT22;45572;48.804;8.330;2022-11-20T11:34:42;9.70;88.40
3550;DHT22;45572;48.804;8.330;2022-11-20T11:37:15;9.70;88.30
3550;DHT22;45572;48.804;8.330;2022-11-20T11:39:46;9.60;88.40
3550;DHT22;45572;48.804;8.330;2022-11-20T11:42:30;9.50;88.60
3550;DHT22;45572;48.804;8.330;2022-11-20T11:44:59;9.40;89.20
3550;DHT22;45572;48.804;8.330;2022-11-20T11:47:37;9.40;89.00
3550;DHT22;45572;48.804;8.330;2022-11-20T11:50:16;9.30;88.60
3550;DHT22;45572;48.804;8.330;2022-11-20T11:52:49;9.40;89.10
3550;DHT22;45572;48.804;8.330;2022-11-20T11:55:26;9.40;88.20
3550;DHT22;45572;48.804;8.330;2022-11-20T11:57:57;9.50;88.40
3550;DHT22;45572;48.804;8.330;2022-11-20T12:00:27;9.60;89.40
3550;DHT22;45572;48.804;8.330;2022-11-20T12:03:07;9.70;88.20
3550;DHT22;45572;48.804;8.330;2022-11-20T12:05:40;9.90;87.90
3550;DHT22;45572;48.804;8.330;2022-11-20T12:08:17;10.00;86.90
3550;DHT22;45572;48.804;8.330;2022-11-20T12:10:50;10.10;86.50
3550;DHT22;45572;48.804;8.330;2022-11-20T12:13:34;10.10;86.20
3550;DHT22;45572;48.804;8.330;2022-11-20T12:16:03;10.20;85.70
3550;DHT22;45572;48.804;8.330;2022-11-20T12:18:33;10.20;86.20
3550;DHT22;45572;48.804;8.330;2022-11-20T12:21:11;10.20;86.20
3550;DHT22;45572;48.804;8.330;2022-11-20T12:23:47;10.10;85.00
3550;DHT22;45572;48.804;8.330;2022-11-20T12:26:26;10.20;85.90
3550;DHT22;45572;48.804;8.330;2022-11-20T12:29:07;10.40;86.10
3550;DHT22;45572;48.804;8.330;2022-11-20T12:31:52;10.40;84.90
3550;DHT22;45572;48.804;8.330;2022-11-20T12:34:37;10.40;84.40
3550;DHT22;45572;48.804;8.330;2022-11-20T12:37:19;10.30;85.30
3550;DHT22;45572;48.804;8.330;2022-11-20T12:39:50;10.40;85.20
3550;DHT22;45572;48.804;8.330;2022-11-20T12:42:36;10.50;84.30
3550;DHT22;45572;48.804;8.330;2022-11-20T12:45:33;10.50;84.20
3550;DHT22;45572;48.804;8.330;2022-11-20T12:51:11;10.60;83.30
3550;DHT22;45572;48.804;8.330;2022-11-20T12:53:49;10.40;81.80
3550;DHT22;45572;48.804;8.330;2022-11-20T12:56:28;10.30;80.70
3550;DHT22;45572;48.804;8.330;2022-11-20T12:59:13;10.20;80.50
3550;DHT22;45572;48.804;8.330;2022-11-20T13:01:49;10.20;80.60
3550;DHT22;45572;48.804;8.330;2022-11-20T13:04:38;10.10;79.50
3550;DHT22;45572;48.804;8.330;2022-11-20T13:07:12;10.10;79.60
3550;DHT22;45572;48.804;8.330;2022-11-20T13:09:46;10.00;80.70
3550;DHT22;45572;48.804;8.330;2022-11-20T13:12:18;10.00;79.60
3550;DHT22;45572;48.804;8.330;2022-11-20T13:14:55;9.90;79.70
3550;DHT22;45572;48.804;8.330;2022-11-20T13:17:30;9.90;79.70
3550;DHT22;45572;48.804;8.330;2022-11-20T13:20:01;9.90;80.10
3550;DHT22;45572;48.804;8.330;2022-11-20T13:22:43;9.90;79.80
3550;DHT22;45572;48.804;8.330;2022-11-20T13:25:23;9.80;79.50
3550;DHT22;45572;48.804;8.330;2022-11-20T13:27:51;9.70;79.10
3550;DHT22;45572;48.804;8.330;2022-11-20T13:30:20;9.70;79.90
3550;DHT22;45572;48.804;8.330;2022-11-20T13:32:51;9.80;80.70
3550;DHT22;45572;48.804;8.330;2022-11-20T13:35:29;9.80;79.30
3550;DHT22;45572;48.804;8.330;2022-11-20T13:38:02;9.80;79.60
3550;DHT22;45572;48.804;8.330;2022-11-20T13:40:31;9.90;80.20
3550;DHT22;45572;48.804;8.330;2022-11-20T13:43:10;9.80;79.40
3550;DHT22;45572;48.804;8.330;2022-11-20T13:45:42;9.90;80.00
3550;DHT22;45572;48.804;8.330;2022-11-20T13:48:22;9.90;79.90
3550;DHT22;45572;48.804;8.330;2022-11-20T13:51:01;10.00;79.30
3550;DHT22;45572;48.804;8.330;2022-11-20T13:53:48;10.10;79.70
3550;DHT22;45572;48.804;8.330;2022-11-20T13:56:24;10.00;79.20
3550;DHT22;45572;48.804;8.330;2022-11-20T13:58:59;10.10;78.60
3550;DHT22;45572;48.804;8.330;2022-11-20T14:01:32;10.10;79.20
3550;DHT22;45572;48.804;8.330;2022-11-20T14:04:06;10.10;77.40
3550;DHT22;45572;48.804;8.330;2022-11-20T14:06:41;10.00;77.40
3550;DHT22;45572;48.804;8.330;2022-11-20T14:09:12;10.10;77.50
3550;DHT22;45572;48.804;8.330;2022-11-20T14:11:46;10.10;77.40
3550;DHT22;45572;48.804;8.330;2022-11-20T14:14:17;10.00;77.40
3550;DHT22;45572;48.804;8.330;2022-11-20T14:16:45;10.00;78.70
3550;DHT22;45572;48.804;8.330;2022-11-20T14:19:26;10.00;77.30
3550;DHT22;45572;48.804;8.330;2022-11-20T14:22:10;10.00;77.70
3550;DHT22;45572;48.804;8.330;2022-11-20T14:24:40;9.90;76.40
3550;DHT22;45572;48.804;8.330;2022-11-20T14:27:12;9.90;77.10
3550;DHT22;45572;48.804;8.330;2022-11-20T14:29:41;9.90;76.70
3550;DHT22;45572;48.804;8.330;2022-11-20T14:32:10;9.70;77.10
3550;DHT22;45572;48.804;8.330;2022-11-20T14:34:41;9.70;77.60
3550;DHT22;45572;48.804;8.330;2022-11-20T14:37:12;9.70;77.50
3550;DHT22;45572;48.804;8.330;2022-11-20T14:39:50;9.60;78.10
3550;DHT22;45572;48.804;8.330;2022-11-20T14:42:21;9.60;78.50
3550;DHT22;45572;48.804;8.330;2022-11-20T14:44:49;9.50;78.00
3550;DHT22;45572;48.804;8.330;2022-11-20T14:47:21;9.60;78.80
3550;DHT22;45572;48.804;8.330;2022-11-20T14:49:50;9.50;77.70
3550;DHT22;45572;48.804;8.330;2022-11-20T14:52:20;9.40;78.00
3550;DHT22;45572;48.804;8.330;2022-11-20T14:54:52;9.40;77.90
3550;DHT22;45572;48.804;8.330;2022-11-20T14:57:23;9.40;78.80
3550;DHT22;45572;48.804;8.330;2022-11-20T15:00:02;9.30;77.90
3550;DHT22;45572;48.804;8.330;2022-11-20T15:02:30;9.20;78.10
3550;DHT22;45572;48.804;8.330;2022-11-20T15:04:59;9.20;78.40
3550;DHT22;45572;48.804;8.330;2022-11-20T15:07:31;9.30;78.50
3550;DHT22;45572;48.804;8.330;2022-11-20T15:10:03;9.30;79.60
3550;DHT22;45572;48.804;8.330;2022-11-20T15:12:33;9.30;78.30
3550;DHT22;45572;48.804;8.330;2022-11-20T15:15:02;9.20;78.00
3550;DHT22;45572;48.804;8.330;2022-11-20T15:17:32;9.20;78.60
3550;DHT22;45572;48.804;8.330;2022-11-20T15:20:03;9.20;76.30
3550;DHT22;45572;48.804;8.330;2022-11-20T15:22:37;9.20;77.50
3550;DHT22;45572;48.804;8.330;2022-11-20T15:25:12;9.20;79.20
3550;DHT22;45572;48.804;8.330;2022-11-20T15:27:40;9.30;79.10
3550;DHT22;45572;48.804;8.330;2022-11-20T15:30:14;9.30;78.90
3550;DHT22;45572;48.804;8.330;2022-11-20T15:32:44;9.20;78.70
3550;DHT22;45572;48.804;8.330;2022-11-20T15:35:13;9.20;77.90
3550;DHT22;45572;48.804;8.330;2022-11-20T15:37:41;9.20;77.40
3550;DHT22;45572;48.804;8.330;2022-11-20T15:40:11;9.10;76.80
3550;DHT22;45572;48.804;8.330;2022-11-20T15:42:39;9.10;77.70
3550;DHT22;45572;48.804;8.330;2022-11-20T15:45:29;9.20;77.80
3550;DHT22;45572;48.804;8.330;2022-11-20T15:47:58;9.20;77.80
3550;DHT22;45572;48.804;8.330;2022-11-20T15:50:30;9.20;79.50
3550;DHT22;45572;48.804;8.330;2022-11-20T15:53:00;9.30;78.60
3550;DHT22;45572;48.804;8.330;2022-11-20T15:55:30;9.20;77.70
3550;DHT22;45572;48.804;8.330;2022-11-20T15:57:58;9.20;77.90
3550;DHT22;45572;48.804;8.330;2022-11-20T16:00:26;9.20;79.10
3550;DHT22;45572;48.804;8.330;2022-11-20T16:02:53;9.30;79.80
3550;DHT22;45572;48.804;8.330;2022-11-20T16:05:21;9.40;79.60
3550;DHT22;45572;48.804;8.330;2022-11-20T16:07:50;9.40;79.20
3550;DHT22;45572;48.804;8.330;2022-11-20T16:10:18;9.40;79.40
3550;DHT22;45572;48.804;8.330;2022-11-20T16:12:47;9.30;80.10
3550;DHT22;45572;48.804;8.330;2022-11-20T16:15:29;9.20;79.60
3550;DHT22;45572;48.804;8.330;2022-11-20T16:18:12;9.10;80.60
3550;DHT22;45572;48.804;8.330;2022-11-20T16:20:40;8.90;81.50
3550;DHT22;45572;48.804;8.330;2022-11-20T16:23:08;8.80;81.20
3550;DHT22;45572;48.804;8.330;2022-11-20T16:25:36;8.80;82.90
3550;DHT22;45572;48.804;8.330;2022-11-20T16:28:05;8.90;83.20
3550;DHT22;45572;48.804;8.330;2022-11-20T16:30:33;9.00;83.00